createdAt,value
2022-08-09T00:23:54.451Z,13.87
2022-08-09T00:28:38.891Z,13.75
2022-08-09T00:33:48.902Z,13.87
2022-08-09T00:38:38.863Z,13.81
2022-08-09T00:44:09.355Z,13.87
2022-08-09T00:48:38.863Z,13.81
2022-08-09T00:53:38.842Z,13.68
2022-08-09T00:58:38.847Z,13.68
2022-08-09T01:03:40.799Z,13.62
2022-08-09T01:08:38.830Z,13.56
2022-08-09T01:13:41.700Z,13.62
2022-08-09T01:18:38.812Z,13.43
2022-08-09T01:24:00.570Z,13.75
2022-08-09T01:28:38.818Z,13.62
2022-08-09T01:33:38.800Z,13.62
2022-08-09T01:38:39.923Z,13.37
2022-08-09T01:43:41.752Z,13.5
2022-08-09T01:48:38.777Z,13.37
2022-08-09T01:53:40.963Z,13.37
2022-08-09T01:58:38.786Z,13.37
2022-08-09T02:03:38.788Z,13.25
2022-08-09T02:08:58.301Z,13.31
2022-08-09T02:13:40.505Z,13.25
2022-08-09T02:18:38.788Z,13.06
2022-08-09T02:23:39.675Z,13
2022-08-09T02:28:38.729Z,13.06
2022-08-09T02:33:58.553Z,13
2022-08-09T02:38:38.730Z,12.87
2022-08-09T02:43:42.309Z,12.81
2022-08-09T02:48:38.708Z,12.62
2022-08-09T02:53:38.699Z,12.75
2022-08-09T02:58:38.718Z,12.62
2022-08-09T03:04:13.366Z,12.56
2022-08-09T03:08:38.679Z,12.37
2022-08-09T03:13:43.564Z,12.43
2022-08-09T03:18:38.686Z,12.37
2022-08-09T03:23:38.663Z,12.5
2022-08-09T03:28:38.658Z,12.43
2022-08-09T03:33:53.742Z,12.12
2022-08-09T03:38:42.231Z,12.25
2022-08-09T03:43:38.647Z,12.12
2022-08-09T03:48:42.843Z,12.43
2022-08-09T03:53:38.635Z,12.31
2022-08-09T03:58:38.636Z,12.43
2022-08-09T04:03:46.569Z,12.31
2022-08-09T04:08:38.618Z,12.43
2022-08-09T04:18:38.600Z,12.62
2022-08-09T04:23:38.598Z,12.68
2022-08-09T04:43:38.581Z,13.68
2022-08-09T04:53:38.560Z,14
2022-08-09T04:58:38.563Z,14.18
2022-08-09T05:03:40.730Z,14.43
2022-08-09T05:23:51.209Z,15.81
2022-08-09T05:33:38.793Z,20.68
2022-08-09T05:38:38.916Z,20.75
2022-08-09T05:43:38.496Z,20.81
2022-08-09T05:48:38.550Z,20.68
2022-08-09T05:58:38.497Z,22.5
2022-08-09T06:03:43.848Z,22.81
2022-08-09T06:08:38.486Z,21.25
2022-08-09T06:13:38.475Z,21.75
2022-08-09T06:18:38.465Z,21.43
2022-08-09T06:23:54.818Z,21.81
2022-08-09T06:28:38.450Z,22.56
2022-08-09T06:33:40.305Z,22.12
2022-08-09T06:38:38.424Z,21.68
2022-08-09T06:43:38.441Z,23
2022-08-09T06:48:38.586Z,22.43
2022-08-09T06:53:38.845Z,22.25
2022-08-09T06:58:41.096Z,22.87
2022-08-09T07:03:39.412Z,24.43
2022-08-09T07:08:39.456Z,23.81
2022-08-09T07:13:44.820Z,22.81
2022-08-09T07:18:38.627Z,22.68
2022-08-09T07:23:46.819Z,22.75
2022-08-09T07:28:38.385Z,22.68
2022-08-09T07:33:52.363Z,22.87
2022-08-09T07:38:38.369Z,23.56
2022-08-09T07:43:40.950Z,23
2022-08-09T07:48:38.326Z,21.5
2022-08-09T07:54:01.800Z,20.68
2022-08-09T07:58:38.360Z,20.56
2022-08-09T08:03:38.314Z,20.81
2022-08-09T08:08:44.859Z,20.81
2022-08-09T08:13:40.074Z,21.12
2022-08-09T08:18:38.311Z,21.06
2022-08-09T08:23:38.281Z,21
2022-08-09T08:28:38.291Z,20.93
2022-08-09T08:33:40.927Z,21.25
2022-08-09T08:38:38.273Z,22.06
2022-08-09T08:43:38.285Z,21.5
2022-08-09T08:48:38.264Z,21.75
2022-08-09T08:53:38.244Z,21.56
2022-08-09T08:58:38.244Z,22
2022-08-09T09:03:38.408Z,21.87
2022-08-09T09:08:40.557Z,22.06
2022-08-09T09:13:41.552Z,21.93
2022-08-09T09:18:38.209Z,22.25
2022-08-09T09:23:38.238Z,22
2022-08-09T09:28:39.445Z,22.43
2022-08-09T09:33:44.230Z,22.87
2022-08-09T09:38:38.197Z,22.75
2022-08-09T09:43:41.100Z,22.81
2022-08-09T09:48:38.169Z,22.81
2022-08-09T09:53:44.083Z,22.62
2022-08-09T09:58:38.170Z,23
2022-08-09T10:03:38.228Z,23.31
2022-08-09T10:08:42.629Z,23.31
2022-08-09T10:13:42.974Z,23.31
2022-08-09T10:18:38.125Z,23.12
2022-08-09T10:23:38.121Z,23.12
2022-08-09T10:28:38.197Z,23.37
2022-08-09T10:34:05.030Z,22.93
2022-08-09T10:38:55.143Z,23.75
2022-08-09T10:43:47.252Z,23.93
2022-08-09T10:48:38.091Z,23.87
2022-08-09T10:53:39.469Z,23.68
2022-08-09T10:58:38.092Z,23.5
2022-08-09T11:03:49.482Z,23.68
2022-08-09T11:08:38.709Z,23.56
2022-08-09T11:13:49.631Z,23.81
2022-08-09T11:18:38.070Z,24
2022-08-09T11:23:38.049Z,23.75
2022-08-09T11:28:38.421Z,24.18
2022-08-09T11:33:38.053Z,24.25
2022-08-09T11:38:41.249Z,24
2022-08-09T11:43:38.754Z,23.81
2022-08-09T11:48:38.028Z,24.43
2022-08-09T11:54:00.170Z,24
2022-08-09T11:58:38.019Z,24.12
2022-08-09T12:03:56.426Z,23.87
2022-08-09T12:08:37.988Z,23.56
2022-08-09T12:14:08.680Z,24.25
2022-08-09T12:18:37.984Z,24.25
2022-08-09T12:23:47.648Z,24.68
2022-08-09T12:29:01.183Z,24.06
2022-08-09T12:33:51.225Z,24.68
2022-08-09T12:38:38.753Z,25
2022-08-09T12:44:04.689Z,24.31
2022-08-09T12:48:38.385Z,24.37
2022-08-09T12:53:38.526Z,24.62
2022-08-09T12:58:42.610Z,24.68
2022-08-09T13:03:52.957Z,24.68
2022-08-09T13:08:39.884Z,24.5
2022-08-09T13:14:12.011Z,24.5
2022-08-09T13:18:37.907Z,24.75
2022-08-09T13:24:07.511Z,24.81
2022-08-09T13:28:39.748Z,24.31
2022-08-09T13:33:52.525Z,24.75
2022-08-09T13:38:56.428Z,24.56
2022-08-09T13:43:38.986Z,25
2022-08-09T13:48:37.855Z,25.06
2022-08-09T13:53:38.839Z,24.93
2022-08-09T13:58:37.837Z,24.81
2022-08-09T14:04:04.046Z,24.93
2022-08-09T14:08:37.844Z,24.81
2022-08-09T14:18:37.799Z,24.81
2022-08-09T14:23:39.981Z,24.81
2022-08-09T14:28:37.806Z,24.68
2022-08-09T14:33:37.988Z,24.81
2022-08-09T14:48:37.794Z,24.62
2022-08-09T14:53:38.844Z,24.5
2022-08-09T15:03:37.751Z,24.93
2022-08-09T15:13:47.969Z,24.75
2022-08-09T15:18:37.721Z,24.81
2022-08-09T15:28:37.719Z,24.75
2022-08-09T15:34:04.518Z,24.43
2022-08-09T15:38:37.706Z,24.81
2022-08-09T15:43:37.824Z,24.5
2022-08-09T15:48:37.706Z,24.68
2022-08-09T15:54:03.063Z,24.68
2022-08-09T15:58:37.689Z,24.56
2022-08-09T16:03:38.463Z,24.62
2022-08-09T16:08:37.665Z,24.37
2022-08-09T16:14:02.245Z,24.37
2022-08-09T16:18:37.659Z,24.31
2022-08-09T16:23:37.638Z,24.5
2022-08-09T16:28:37.641Z,24.18
2022-08-09T16:33:38.813Z,24.12
2022-08-09T16:38:37.616Z,24.12
2022-08-09T16:43:40.428Z,23.93
2022-08-09T16:48:50.921Z,24.06
2022-08-09T16:53:43.880Z,23.87
2022-08-09T16:58:37.590Z,23.75
2022-08-09T17:03:37.618Z,23.62
2022-08-09T17:08:42.008Z,23.68
2022-08-09T17:18:37.558Z,23.5
2022-08-09T17:24:21.501Z,23.31
2022-08-09T17:28:37.563Z,23.31
2022-08-09T17:33:37.869Z,23.18
2022-08-09T17:38:39.416Z,23.06
2022-08-09T17:43:38.161Z,23
2022-08-09T17:48:38.369Z,22.81
2022-08-09T17:53:43.148Z,22.75
2022-08-09T17:58:37.536Z,22.62
2022-08-09T18:03:37.619Z,22.43
2022-08-09T18:08:37.510Z,22.31
2022-08-09T18:13:40.465Z,22
2022-08-09T18:18:42.985Z,21.81
2022-08-09T18:24:09.120Z,21.68
2022-08-09T18:30:34.231Z,21.5
2022-08-09T18:33:37.496Z,21.31
2022-08-09T18:38:37.451Z,21.12
2022-08-09T18:48:37.459Z,20.81
2022-08-09T18:53:57.007Z,20.68
2022-08-09T18:58:39.021Z,20.5
2022-08-09T19:18:41.057Z,20.12
2022-08-09T19:24:31.191Z,20.06
2022-08-09T19:28:37.881Z,19.93
2022-08-09T19:33:37.392Z,19.87
2022-08-09T19:43:58.491Z,19.75
2022-08-09T19:53:45.663Z,19.62
2022-08-09T20:04:14.276Z,19.31
2022-08-09T20:08:37.359Z,19.31
2022-08-09T20:13:37.482Z,18.93
2022-08-09T20:18:37.359Z,18.31
2022-08-09T20:23:39.278Z,18.06
2022-08-09T20:28:47.612Z,17.81
2022-08-09T20:33:39.374Z,17.62
2022-08-09T20:39:02.880Z,18
2022-08-09T20:43:37.293Z,17.56
2022-08-09T20:48:37.293Z,17.12
2022-08-09T20:53:38.898Z,16.75
2022-08-09T20:58:37.963Z,16.62
2022-08-09T21:03:39.332Z,16.5
2022-08-09T21:08:37.285Z,16.68
2022-08-09T21:13:45.908Z,16.75
2022-08-09T21:19:01.666Z,16.43
2022-08-09T21:23:48.067Z,16.18
2022-08-09T21:28:37.256Z,16.37
2022-08-09T21:33:37.866Z,16.62
2022-08-09T21:38:37.219Z,16.68
2022-08-09T21:43:46.719Z,17.56
2022-08-09T21:48:37.214Z,17.68
2022-08-09T21:53:39.966Z,17.62
2022-08-09T21:58:37.203Z,17.37
2022-08-09T22:13:37.288Z,16.56
2022-08-09T22:18:37.485Z,16.87
2022-08-09T22:23:58.827Z,16.43
2022-08-09T22:28:37.178Z,16.5
2022-08-09T22:33:37.402Z,16.43
2022-08-09T22:38:37.248Z,16.62
2022-08-09T22:44:00.891Z,16.62
2022-08-09T22:48:37.372Z,16.56
2022-08-09T22:53:44.245Z,16.62
2022-08-09T22:58:37.120Z,16.75
2022-08-09T23:04:03.216Z,16.68
2022-08-09T23:08:37.095Z,17
2022-08-09T23:13:37.106Z,16.81
2022-08-09T23:18:37.116Z,16.75
2022-08-09T23:23:37.094Z,16.81
2022-08-09T23:28:37.090Z,16.25
2022-08-09T23:33:37.075Z,16.18
2022-08-09T23:38:48.758Z,16.5
2022-08-09T23:43:37.071Z,16.43
2022-08-09T23:48:37.053Z,16.56
2022-08-09T23:53:37.776Z,16.43
2022-08-09T23:58:37.053Z,16.37
